Time;durP1;ratioP1;P1;durP2;ratioP2;P2;SDS_P1;SDS_P2;PMS_P1;PMS_P2;Temp;Humidity;BMP_temperature;BMP_pressure;BME280_temperature;BME280_humidity;BME280_pressure;Samples;Min_cycle;Max_cycle;Signal;HPM_P1;HPM_P2
2021/09/02 00:02:08;;;;;;;;;;;12.20;1.00;;;;;;5105826;28;19907;-66
2021/09/02 00:04:34;;;;;;;;;;;12.20;1.00;;;;;;5109248;28;19914;-69
2021/09/02 00:07:00;;;;;;;;;;;12.20;1.00;;;;;;5109320;28;19939;-66
2021/09/02 00:09:26;;;;;;;;;;;12.20;1.00;;;;;;5108013;28;19908;-65
2021/09/02 00:11:51;;;;;;;;;;;12.10;1.00;;;;;;5108321;28;20530;-65
2021/09/02 00:14:17;;;;;;;;;;;12.10;1.00;;;;;;5109059;28;20309;-65
2021/09/02 00:16:42;;;;;;;;;;;12.10;1.00;;;;;;5106668;28;19908;-66
2021/09/02 00:19:08;;;;;;;;;;;12.00;1.00;;;;;;5108386;28;19911;-66
2021/09/02 00:21:34;;;;;;;;;;;12.00;1.00;;;;;;5109318;28;19993;-65
2021/09/02 00:23:59;;;;;;;;;;;12.00;1.00;;;;;;5107541;28;20003;-66
2021/09/02 00:26:25;;;;;;;;;;;12.00;1.00;;;;;;5110348;28;19995;-65
2021/09/02 00:28:50;;;;;;;;;;;12.00;1.00;;;;;;5110915;28;19915;-66
2021/09/02 00:31:16;;;;;;;;;;;12.00;1.00;;;;;;5114369;28;19912;-66
2021/09/02 00:33:41;;;;;;;;;;;12.00;1.00;;;;;;5112317;28;20004;-66
2021/09/02 00:36:07;;;;;;;;;;;12.00;1.00;;;;;;5113669;28;20045;-66
2021/09/02 00:38:32;;;;;;;;;;;12.00;1.00;;;;;;5112498;28;20087;-66
2021/09/02 00:40:58;;;;;;;;;;;11.90;1.00;;;;;;5112751;28;19907;-66
2021/09/02 00:43:24;;;;;;;;;;;12.00;1.00;;;;;;5112588;28;19981;-66
2021/09/02 00:45:49;;;;;;;;;;;12.00;1.00;;;;;;5113096;28;20382;-66
2021/09/02 00:48:15;;;;;;;;;;;11.90;1.00;;;;;;5110645;28;19939;-66
2021/09/02 00:50:40;;;;;;;;;;;11.90;1.00;;;;;;5112896;28;19994;-66
2021/09/02 00:53:06;;;;;;;;;;;11.90;1.00;;;;;;5109268;28;19918;-66
2021/09/02 00:55:32;;;;;;;;;;;11.80;1.00;;;;;;5112783;28;19912;-65
2021/09/02 00:57:59;;;;;;;;;;;11.80;1.00;;;;;;5111241;28;20026;-65
2021/09/02 01:00:24;;;;;;;;;;;11.70;1.00;;;;;;5112853;28;20002;-65
2021/09/02 01:02:50;;;;;;;;;;;11.70;1.00;;;;;;5112027;28;20321;-65
2021/09/02 01:05:17;;;;;;;;;;;11.70;1.00;;;;;;5103797;28;19915;-66
2021/09/02 01:07:43;;;;;;;;;;;11.60;1.00;;;;;;5114520;27;20216;-66
2021/09/02 01:10:09;;;;;;;;;;;11.60;1.00;;;;;;5112147;28;19918;-65
2021/09/02 01:12:37;;;;;;;;;;;11.60;1.00;;;;;;5112504;28;19915;-66
2021/09/02 01:15:12;;;;;;;;;;;11.50;1.00;;;;;;5094903;28;19969;-66
2021/09/02 01:17:38;;;;;;;;;;;11.50;1.00;;;;;;5112238;28;19947;-64
2021/09/02 01:20:05;;;;;;;;;;;11.50;1.00;;;;;;5113000;28;20046;-66
2021/09/02 01:22:31;;;;;;;;;;;11.50;1.00;;;;;;5111296;28;19955;-66
2021/09/02 01:24:58;;;;;;;;;;;11.50;1.00;;;;;;5112522;28;19947;-66
2021/09/02 01:27:25;;;;;;;;;;;11.40;1.00;;;;;;5113228;28;19908;-64
2021/09/02 01:29:51;;;;;;;;;;;11.50;1.00;;;;;;5112440;28;19919;-65
2021/09/02 01:32:17;;;;;;;;;;;11.50;1.00;;;;;;5111511;28;20002;-65
2021/09/02 01:34:43;;;;;;;;;;;11.50;1.00;;;;;;5113816;28;20365;-65
2021/09/02 01:37:08;;;;;;;;;;;11.40;1.00;;;;;;5113981;28;19915;-64
2021/09/02 01:39:33;;;;;;;;;;;11.40;1.00;;;;;;5112868;28;19908;-64
2021/09/02 01:41:59;;;;;;;;;;;11.40;1.00;;;;;;5112266;28;20394;-64
2021/09/02 01:44:24;;;;;;;;;;;11.30;1.00;;;;;;5114352;28;19908;-65
2021/09/02 01:46:50;;;;;;;;;;;11.30;1.00;;;;;;5113941;28;19907;-63
2021/09/02 01:49:16;;;;;;;;;;;11.30;1.00;;;;;;5112948;28;19919;-65
2021/09/02 01:51:43;;;;;;;;;;;11.30;1.00;;;;;;5094065;28;19942;-64
2021/09/02 01:54:09;;;;;;;;;;;11.30;1.00;;;;;;5090406;28;19912;-64
2021/09/02 01:56:35;;;;;;;;;;;11.20;1.00;;;;;;5092656;28;19909;-65
2021/09/02 01:59:00;;;;;;;;;;;11.20;1.00;;;;;;5092452;28;19930;-64
2021/09/02 02:01:26;;;;;;;;;;;11.20;1.00;;;;;;5092613;28;19912;-65
2021/09/02 02:03:51;;;;;;;;;;;11.20;1.00;;;;;;5090623;28;20369;-67
2021/09/02 02:06:16;;;;;;;;;;;11.20;1.00;;;;;;5093516;28;19915;-66
2021/09/02 02:08:42;;;;;;;;;;;11.10;1.00;;;;;;5111378;28;19966;-67
2021/09/02 02:11:07;;;;;;;;;;;11.10;1.00;;;;;;5111537;28;19954;-67
2021/09/02 02:13:33;;;;;;;;;;;11.10;1.00;;;;;;5111524;28;19957;-66
2021/09/02 02:15:58;;;;;;;;;;;11.10;1.00;;;;;;5111813;28;20376;-66
2021/09/02 02:18:24;;;;;;;;;;;11.00;1.00;;;;;;5111701;28;19916;-67
2021/09/02 02:20:49;;;;;;;;;;;11.00;1.00;;;;;;5111611;28;19912;-65
2021/09/02 02:23:15;;;;;;;;;;;11.00;1.00;;;;;;5110315;28;19998;-66
2021/09/02 02:25:40;;;;;;;;;;;11.00;1.00;;;;;;5111415;28;20611;-66
2021/09/02 02:28:06;;;;;;;;;;;11.00;1.00;;;;;;5111330;28;19908;-66
2021/09/02 02:30:31;;;;;;;;;;;10.90;1.00;;;;;;5111457;28;19938;-65
2021/09/02 02:32:57;;;;;;;;;;;10.90;1.00;;;;;;5110091;28;19908;-66
2021/09/02 02:35:22;;;;;;;;;;;10.90;1.00;;;;;;5111422;28;20000;-66
2021/09/02 02:37:48;;;;;;;;;;;10.90;1.00;;;;;;5110116;28;19926;-66
2021/09/02 02:40:14;;;;;;;;;;;10.80;1.00;;;;;;5110632;28;19915;-65
2021/09/02 02:42:40;;;;;;;;;;;10.80;1.00;;;;;;5110981;28;19923;-65
2021/09/02 02:45:06;;;;;;;;;;;10.80;1.00;;;;;;5111621;28;19916;-67
2021/09/02 02:47:31;;;;;;;;;;;10.80;1.00;;;;;;5111066;28;19912;-67
2021/09/02 02:49:57;;;;;;;;;;;10.80;1.00;;;;;;5111420;28;19912;-67
2021/09/02 02:52:22;;;;;;;;;;;10.80;1.00;;;;;;5110091;28;19919;-65
2021/09/02 02:54:48;;;;;;;;;;;10.70;1.00;;;;;;5111342;28;19919;-65
2021/09/02 02:57:13;;;;;;;;;;;10.70;1.00;;;;;;5112482;28;19911;-67
2021/09/02 02:59:39;;;;;;;;;;;10.70;1.00;;;;;;5112482;28;19914;-67
2021/09/02 03:02:04;;;;;;;;;;;10.70;1.00;;;;;;5111137;28;19912;-67
2021/09/02 03:04:30;;;;;;;;;;;10.70;1.00;;;;;;5112010;28;20279;-66
2021/09/02 03:06:55;;;;;;;;;;;10.70;1.00;;;;;;5112110;28;19908;-66
2021/09/02 03:09:21;;;;;;;;;;;10.70;1.00;;;;;;5111406;28;19912;-66
2021/09/02 03:11:46;;;;;;;;;;;10.60;1.00;;;;;;5111954;28;19908;-62
2021/09/02 03:14:12;;;;;;;;;;;10.60;1.00;;;;;;5112173;28;19915;-66
2021/09/02 03:16:37;;;;;;;;;;;10.60;1.00;;;;;;5112803;28;19922;-67
2021/09/02 03:19:03;;;;;;;;;;;10.60;1.00;;;;;;5111162;28;20105;-66
2021/09/02 03:21:28;;;;;;;;;;;10.60;1.00;;;;;;5111594;28;19912;-67
2021/09/02 03:23:54;;;;;;;;;;;10.50;1.00;;;;;;5110220;28;19960;-66
2021/09/02 03:26:19;;;;;;;;;;;10.50;1.00;;;;;;5113782;28;19908;-65
2021/09/02 03:28:45;;;;;;;;;;;10.50;1.00;;;;;;5113001;28;19919;-65
2021/09/02 03:31:10;;;;;;;;;;;10.50;1.00;;;;;;5112190;28;19908;-66
2021/09/02 03:33:36;;;;;;;;;;;10.50;1.00;;;;;;5122207;28;19975;-65
2021/09/02 03:36:01;;;;;;;;;;;10.50;1.00;;;;;;5126744;28;20395;-66
2021/09/02 03:38:27;;;;;;;;;;;10.50;1.00;;;;;;5126618;28;19916;-67
2021/09/02 03:40:52;;;;;;;;;;;10.50;1.00;;;;;;5128034;28;19937;-66
2021/09/02 03:43:20;;;;;;;;;;;10.50;1.00;;;;;;5124552;28;19912;-65
2021/09/02 03:45:46;;;;;;;;;;;10.40;1.00;;;;;;5127316;28;19911;-65
2021/09/02 03:48:12;;;;;;;;;;;10.40;1.00;;;;;;5127260;28;19922;-66
2021/09/02 03:50:37;;;;;;;;;;;10.40;1.00;;;;;;5127002;28;19971;-65
2021/09/02 03:53:03;;;;;;;;;;;10.40;1.00;;;;;;5117201;28;19930;-66
2021/09/02 03:55:28;;;;;;;;;;;10.40;1.00;;;;;;5112181;28;19911;-66
2021/09/02 03:57:53;;;;;;;;;;;10.30;1.00;;;;;;5110939;28;19920;-66
2021/09/02 04:00:19;;;;;;;;;;;10.30;1.00;;;;;;5110777;28;19924;-66
2021/09/02 04:02:44;;;;;;;;;;;10.30;1.00;;;;;;5091355;28;19943;-66
2021/09/02 04:05:10;;;;;;;;;;;10.30;1.00;;;;;;5110295;28;19911;-67
2021/09/02 04:07:36;;;;;;;;;;;10.30;1.00;;;;;;5122425;27;19918;-66
2021/09/02 04:10:02;;;;;;;;;;;10.20;1.00;;;;;;5131294;27;19937;-65
2021/09/02 04:12:27;;;;;;;;;;;10.20;1.00;;;;;;5131081;27;19962;-67
2021/09/02 04:14:54;;;;;;;;;;;10.30;1.00;;;;;;5131157;27;19947;-67
2021/09/02 04:17:19;;;;;;;;;;;10.20;1.00;;;;;;5131221;27;19915;-66
2021/09/02 04:19:45;;;;;;;;;;;10.20;1.00;;;;;;5125761;28;20420;-66
2021/09/02 04:22:10;;;;;;;;;;;10.10;1.00;;;;;;5107563;28;19959;-64
2021/09/02 04:24:35;;;;;;;;;;;10.10;1.00;;;;;;5109548;28;20372;-67
2021/09/02 04:27:01;;;;;;;;;;;10.10;1.00;;;;;;5109010;28;19912;-64
2021/09/02 04:29:26;;;;;;;;;;;10.00;1.00;;;;;;5109616;28;19911;-66
2021/09/02 04:31:52;;;;;;;;;;;10.10;1.00;;;;;;5110806;28;19911;-66
2021/09/02 04:34:17;;;;;;;;;;;10.10;1.00;;;;;;5110478;28;19943;-66
2021/09/02 04:36:43;;;;;;;;;;;10.10;1.00;;;;;;5110152;28;19908;-66
2021/09/02 04:39:08;;;;;;;;;;;10.00;1.00;;;;;;5104717;28;19935;-67
2021/09/02 04:41:34;;;;;;;;;;;10.00;1.00;;;;;;5090769;28;19919;-66
2021/09/02 04:43:59;;;;;;;;;;;10.10;1.00;;;;;;5100330;28;19957;-67
2021/09/02 04:46:26;;;;;;;;;;;10.10;1.00;;;;;;5110545;28;19911;-66
2021/09/02 04:48:51;;;;;;;;;;;10.10;1.00;;;;;;5109883;28;20440;-66
2021/09/02 04:51:17;;;;;;;;;;;10.10;1.00;;;;;;5095212;28;19951;-67
2021/09/02 04:53:43;;;;;;;;;;;10.20;1.00;;;;;;5088560;28;19912;-65
2021/09/02 04:56:09;;;;;;;;;;;10.20;1.00;;;;;;5101446;28;20348;-67
2021/09/02 04:58:34;;;;;;;;;;;10.30;1.00;;;;;;5092496;28;19912;-68
2021/09/02 05:01:00;;;;;;;;;;;10.30;1.00;;;;;;5110481;28;20089;-67
2021/09/02 05:03:25;;;;;;;;;;;10.40;1.00;;;;;;5107892;28;20332;-67
2021/09/02 05:05:51;;;;;;;;;;;10.50;1.00;;;;;;5090153;28;20376;-67
2021/09/02 05:08:16;;;;;;;;;;;10.50;1.00;;;;;;5090772;28;19930;-67
2021/09/02 05:10:42;;;;;;;;;;;10.60;1.00;;;;;;5108023;28;20562;-63
2021/09/02 05:13:07;;;;;;;;;;;10.80;1.00;;;;;;5109660;28;19965;-66
2021/09/02 05:15:33;;;;;;;;;;;10.80;1.00;;;;;;5109036;28;19916;-66
2021/09/02 05:17:58;;;;;;;;;;;10.90;1.00;;;;;;5090987;28;19924;-64
2021/09/02 05:20:24;;;;;;;;;;;10.90;1.00;;;;;;5105541;28;19920;-65
2021/09/02 05:22:49;;;;;;;;;;;11.00;1.00;;;;;;5110189;28;20356;-65
2021/09/02 05:25:15;;;;;;;;;;;11.00;1.00;;;;;;5111746;28;19912;-64
2021/09/02 05:27:40;;;;;;;;;;;11.10;1.00;;;;;;5111951;28;19995;-66
2021/09/02 05:30:09;;;;;;;;;;;11.20;1.00;;;;;;5111654;28;19985;-65
2021/09/02 05:32:34;;;;;;;;;;;11.40;1.00;;;;;;5109764;28;19911;-65
2021/09/02 05:35:00;;;;;;;;;;;11.60;1.00;;;;;;5110977;28;19908;-65
2021/09/02 05:37:25;;;;;;;;;;;12.00;1.00;;;;;;5110072;28;20045;-65
2021/09/02 05:39:51;;;;;;;;;;;12.90;1.00;;;;;;5109709;28;19919;-65
2021/09/02 05:42:17;;;;;;;;;;;14.20;1.00;;;;;;5108772;28;19911;-65
2021/09/02 05:44:43;;;;;;;;;;;15.50;99.90;;;;;;5105909;28;19908;-66
2021/09/02 05:47:08;;;;;;;;;;;16.90;1.00;;;;;;5109136;28;20064;-66
2021/09/02 05:49:34;;;;;;;;;;;17.90;1.00;;;;;;5108827;28;19920;-66
2021/09/02 05:51:59;;;;;;;;;;;19.00;1.00;;;;;;5108283;28;20481;-65
2021/09/02 05:54:25;;;;;;;;;;;20.00;1.00;;;;;;5110192;27;20224;-65
2021/09/02 05:56:50;;;;;;;;;;;21.00;99.90;;;;;;5129428;27;20006;-66
2021/09/02 05:59:16;;;;;;;;;;;22.00;99.90;;;;;;5129579;27;19947;-63
2021/09/02 06:01:42;;;;;;;;;;;22.60;99.90;;;;;;5129908;27;19996;-64
2021/09/02 06:04:07;;;;;;;;;;;23.20;99.90;;;;;;5129299;27;20630;-64
2021/09/02 06:06:33;;;;;;;;;;;23.90;99.90;;;;;;5130992;27;19915;-66
2021/09/02 06:08:58;;;;;;;;;;;24.40;99.90;;;;;;5128816;27;19912;-66
2021/09/02 06:11:24;;;;;;;;;;;24.90;99.90;;;;;;5130910;27;19914;-65
2021/09/02 06:13:49;;;;;;;;;;;25.30;99.90;;;;;;5129616;27;19911;-66
2021/09/02 06:16:15;;;;;;;;;;;26.00;99.90;;;;;;5130193;27;19912;-66
2021/09/02 06:18:40;;;;;;;;;;;26.40;99.90;;;;;;5129706;27;19996;-66
2021/09/02 06:21:06;;;;;;;;;;;26.60;99.90;;;;;;5129618;27;19971;-65
2021/09/02 06:23:31;;;;;;;;;;;26.50;99.90;;;;;;5124660;27;19952;-68
2021/09/02 06:25:57;;;;;;;;;;;26.70;99.90;;;;;;5099134;28;19990;-67
2021/09/02 06:28:22;;;;;;;;;;;27.00;99.90;;;;;;5103811;28;19907;-67
2021/09/02 06:30:48;;;;;;;;;;;27.30;99.90;;;;;;5100822;28;19908;-64
2021/09/02 06:33:14;;;;;;;;;;;27.80;99.90;;;;;;5101059;28;20350;-68
2021/09/02 06:35:39;;;;;;;;;;;28.00;99.90;;;;;;5099711;28;19912;-66
2021/09/02 06:38:05;;;;;;;;;;;28.10;99.90;;;;;;5099946;28;19963;-66
2021/09/02 06:40:31;;;;;;;;;;;28.40;99.90;;;;;;5101134;28;19973;-67
2021/09/02 06:42:56;;;;;;;;;;;29.10;99.90;;;;;;5098693;28;19908;-67
2021/09/02 06:45:22;;;;;;;;;;;29.60;99.90;;;;;;5101151;28;19908;-67
2021/09/02 06:47:47;;;;;;;;;;;30.20;99.90;;;;;;5100660;28;19912;-67
2021/09/02 06:50:13;;;;;;;;;;;30.90;99.90;;;;;;5102850;28;19938;-67
2021/09/02 06:52:40;;;;;;;;;;;31.30;99.90;;;;;;5108967;28;19918;-68
2021/09/02 06:55:06;;;;;;;;;;;31.80;99.90;;;;;;5119081;27;20026;-67
2021/09/02 06:57:32;;;;;;;;;;;32.50;99.90;;;;;;5112881;27;19911;-67
2021/09/02 06:59:58;;;;;;;;;;;32.70;99.90;;;;;;5130710;27;19952;-67
2021/09/02 07:02:23;;;;;;;;;;;32.70;99.90;;;;;;5130056;27;20064;-67
2021/09/02 07:04:49;;;;;;;;;;;31.80;99.90;;;;;;5139723;22;20352;-63
2021/09/02 07:07:14;;;;;;;;;;;30.90;99.90;;;;;;5112082;28;19916;-63
2021/09/02 07:09:40;;;;;;;;;;;31.40;99.90;;;;;;5111523;28;19908;-63
2021/09/02 07:12:05;;;;;;;;;;;31.40;99.90;;;;;;5110875;28;20291;-64
2021/09/02 07:14:31;;;;;;;;;;;32.20;99.90;;;;;;5110696;28;20377;-63
2021/09/02 07:16:57;;;;;;;;;;;33.20;99.90;;;;;;5110667;28;19999;-62
2021/09/02 07:19:22;;;;;;;;;;;33.60;99.90;;;;;;5110805;28;19908;-63
2021/09/02 07:21:48;;;;;;;;;;;34.60;99.90;;;;;;5110184;28;20341;-63
2021/09/02 07:24:13;;;;;;;;;;;35.70;99.90;;;;;;5109514;28;19960;-63
2021/09/02 07:26:39;;;;;;;;;;;36.90;99.90;;;;;;5111843;28;19907;-63
2021/09/02 07:29:08;;;;;;;;;;;38.00;99.90;;;;;;5111435;28;19908;-64
2021/09/02 07:31:34;;;;;;;;;;;37.90;99.90;;;;;;5110596;28;20305;-63
2021/09/02 07:33:59;;;;;;;;;;;37.00;99.90;;;;;;5109417;28;19994;-63
2021/09/02 07:36:25;;;;;;;;;;;37.00;99.90;;;;;;5110618;28;19930;-63
2021/09/02 07:38:50;;;;;;;;;;;37.70;99.90;;;;;;5109792;28;19908;-63
2021/09/02 07:41:16;;;;;;;;;;;38.40;99.90;;;;;;5111525;28;19912;-63
2021/09/02 07:43:42;;;;;;;;;;;39.90;98.10;;;;;;5110286;28;19911;-64
2021/09/02 07:46:08;;;;;;;;;;;40.90;94.50;;;;;;5110865;28;19977;-64
2021/09/02 07:48:34;;;;;;;;;;;42.30;91.00;;;;;;5092273;28;20400;-64
2021/09/02 07:50:59;;;;;;;;;;;42.60;81.80;;;;;;5099987;28;19912;-64
2021/09/02 07:53:25;;;;;;;;;;;42.60;70.70;;;;;;5088971;28;19912;-63
2021/09/02 07:55:50;;;;;;;;;;;42.80;61.00;;;;;;5105621;28;19907;-63
2021/09/02 07:58:16;;;;;;;;;;;43.40;55.20;;;;;;5111509;28;20373;-64
2021/09/02 08:00:41;;;;;;;;;;;44.00;49.30;;;;;;5110961;28;19915;-63
2021/09/02 08:03:07;;;;;;;;;;;43.40;41.60;;;;;;5109708;28;20006;-64
2021/09/02 08:05:32;;;;;;;;;;;43.40;36.80;;;;;;5110461;28;19930;-63
2021/09/02 08:07:58;;;;;;;;;;;43.60;31.90;;;;;;5110691;28;19938;-64
2021/09/02 08:10:24;;;;;;;;;;;43.40;27.50;;;;;;5110395;28;19966;-64
2021/09/02 08:12:51;;;;;;;;;;;43.50;25.00;;;;;;5111578;28;19912;-64
2021/09/02 08:15:17;;;;;;;;;;;43.40;21.00;;;;;;5111666;28;19914;-64
2021/09/02 08:17:42;;;;;;;;;;;43.70;18.50;;;;;;5108834;28;20003;-63
2021/09/02 08:20:09;;;;;;;;;;;43.90;15.80;;;;;;5110314;28;19950;-63
2021/09/02 08:22:35;;;;;;;;;;;44.40;14.10;;;;;;5109436;28;20783;-62
2021/09/02 08:25:00;;;;;;;;;;;43.90;10.10;;;;;;5110444;28;19999;-64
2021/09/02 08:27:26;;;;;;;;;;;42.80;7.20;;;;;;5111145;28;19980;-62
2021/09/02 08:29:51;;;;;;;;;;;42.10;4.70;;;;;;5111361;28;19947;-64
2021/09/02 08:32:17;;;;;;;;;;;41.70;3.70;;;;;;5109589;28;19915;-64
2021/09/02 08:34:42;;;;;;;;;;;42.70;3.50;;;;;;5110196;28;19907;-64
2021/09/02 08:37:08;;;;;;;;;;;43.40;2.50;;;;;;5110529;28;19911;-64
2021/09/02 08:39:33;;;;;;;;;;;43.70;1.60;;;;;;5108944;28;20509;-64
2021/09/02 08:41:59;;;;;;;;;;;43.80;1.00;;;;;;5110068;28;19919;-63
2021/09/02 08:44:25;;;;;;;;;;;42.90;1.00;;;;;;5110134;28;19916;-63
2021/09/02 08:46:50;;;;;;;;;;;42.10;1.00;;;;;;5111111;28;19908;-63
2021/09/02 08:49:21;;;;;;;;;;;41.80;1.00;;;;;;5109953;28;20006;-63
2021/09/02 08:51:47;;;;;;;;;;;42.50;1.00;;;;;;5113950;28;19923;-63
2021/09/02 08:54:13;;;;;;;;;;;41.60;1.00;;;;;;5114543;28;19912;-63
2021/09/02 08:56:38;;;;;;;;;;;41.30;1.00;;;;;;5115354;28;19923;-62
2021/09/02 08:59:04;;;;;;;;;;;41.60;1.00;;;;;;5113665;28;19915;-63
2021/09/02 09:01:29;;;;;;;;;;;41.40;1.00;;;;;;5114630;28;20284;-63
2021/09/02 09:03:55;;;;;;;;;;;41.20;1.00;;;;;;5114437;28;19961;-63
2021/09/02 09:06:24;;;;;;;;;;;41.60;1.00;;;;;;5114721;28;19927;-63
2021/09/02 09:08:50;;;;;;;;;;;41.10;1.00;;;;;;5113528;28;20275;-62
2021/09/02 09:11:15;;;;;;;;;;;40.90;1.00;;;;;;5112213;28;19965;-63
2021/09/02 09:13:41;;;;;;;;;;;41.70;1.00;;;;;;5106418;28;19912;-62
2021/09/02 09:16:06;;;;;;;;;;;41.20;1.00;;;;;;5111878;28;19915;-63
2021/09/02 09:18:39;;;;;;;;;;;40.30;1.00;;;;;;5112979;28;19944;-66
2021/09/02 09:21:07;;;;;;;;;;;40.20;1.00;;;;;;5113677;28;19912;-66
2021/09/02 09:23:51;;;;;;;;;;;40.60;1.00;;;;;;5103558;28;19915;-64
2021/09/02 09:26:17;;;;;;;;;;;40.30;1.00;;;;;;5112679;28;20041;-63
2021/09/02 09:28:42;;;;;;;;;;;40.20;1.00;;;;;;5113247;28;19947;-62
2021/09/02 09:31:24;;;;;;;;;;;40.60;1.00;;;;;;5113364;28;19928;-63
2021/09/02 09:33:53;;;;;;;;;;;39.90;1.00;;;;;;5113120;28;19915;-65
2021/09/02 09:36:22;;;;;;;;;;;39.70;1.00;;;;;;5114529;28;19912;-63
2021/09/02 09:39:03;;;;;;;;;;;38.80;1.00;;;;;;5096068;28;20012;-64
2021/09/02 09:41:39;;;;;;;;;;;39.50;1.00;;;;;;5114093;28;19922;-64
2021/09/02 09:44:14;;;;;;;;;;;39.50;1.00;;;;;;5114206;28;19908;-63
2021/09/02 09:46:40;;;;;;;;;;;38.20;1.00;;;;;;5113506;28;19907;-64
2021/09/02 09:49:05;;;;;;;;;;;37.80;1.00;;;;;;5114174;28;19919;-64
2021/09/02 09:51:31;;;;;;;;;;;37.20;1.00;;;;;;5096975;28;19912;-63
2021/09/02 09:53:56;;;;;;;;;;;36.50;1.00;;;;;;5092329;28;20273;-63
2021/09/02 09:56:23;;;;;;;;;;;36.20;1.00;;;;;;5132675;27;19915;-62
2021/09/02 09:58:50;;;;;;;;;;;35.50;1.00;;;;;;5136899;27;20345;-59
2021/09/02 10:01:16;;;;;;;;;;;34.70;1.00;;;;;;5134770;27;19998;-63
2021/09/02 10:03:42;;;;;;;;;;;34.40;2.50;;;;;;5133148;27;19919;-62
2021/09/02 10:06:09;;;;;;;;;;;34.20;4.00;;;;;;5132324;27;19920;-63
2021/09/02 10:08:36;;;;;;;;;;;34.20;5.40;;;;;;5132755;27;19990;-63
2021/09/02 10:11:03;;;;;;;;;;;33.60;5.70;;;;;;5132529;27;20501;-64
2021/09/02 10:13:29;;;;;;;;;;;32.70;6.50;;;;;;5132664;27;19911;-63
2021/09/02 10:15:55;;;;;;;;;;;32.30;8.40;;;;;;5134256;27;19914;-62
2021/09/02 10:18:20;;;;;;;;;;;32.40;10.60;;;;;;5133397;27;20389;-63
2021/09/02 10:20:46;;;;;;;;;;;31.90;11.20;;;;;;5122419;27;19919;-63
2021/09/02 10:23:14;;;;;;;;;;;32.40;22.80;;;;;;5102059;28;19912;-64
2021/09/02 10:25:40;;;;;;;;;;;32.20;13.30;;;;;;5101384;28;19923;-63
2021/09/02 10:28:12;;;;;;;;;;;32.00;15.60;;;;;;5107819;28;20284;-64
2021/09/02 10:30:45;;;;;;;;;;;31.40;17.00;;;;;;5086199;28;19947;-65
2021/09/02 10:33:34;;;;;;;;;;;31.10;18.10;;;;;;5102624;28;19912;-63
2021/09/02 10:36:00;;;;;;;;;;;31.40;20.60;;;;;;5104556;28;20339;-64
2021/09/02 10:38:55;;;;;;;;;;;31.90;20.60;;;;;;5107531;28;19951;-63
2021/09/02 10:41:37;;;;;;;;;;;31.30;21.40;;;;;;5079209;28;19947;-63
2021/09/02 10:44:06;;;;;;;;;;;31.20;22.90;;;;;;5100189;28;19967;-64
2021/09/02 10:46:35;;;;;;;;;;;31.50;22.20;;;;;;5101425;28;19948;-63
2021/09/02 10:49:14;;;;;;;;;;;31.50;21.70;;;;;;5100818;28;19981;-63
2021/09/02 10:51:40;;;;;;;;;;;30.80;22.40;;;;;;5097921;28;19981;-63
2021/09/02 10:54:08;;;;;;;;;;;30.80;24.60;;;;;;5098217;28;19912;-63
2021/09/02 10:56:50;;;;;;;;;;;30.90;26.20;;;;;;5084423;28;19912;-63
2021/09/02 10:59:33;;;;;;;;;;;31.00;25.80;;;;;;5100436;28;20387;-61
2021/09/02 11:01:58;;;;;;;;;;;30.80;27.00;;;;;;5100211;28;19913;-63
2021/09/02 11:04:24;;;;;;;;;;;30.70;27.70;;;;;;5100900;28;19908;-64
2021/09/02 11:06:50;;;;;;;;;;;30.60;27.10;;;;;;5102218;28;19915;-64
2021/09/02 11:09:32;;;;;;;;;;;29.90;39.30;;;;;;5103785;28;19908;-64
2021/09/02 11:11:58;;;;;;;;;;;29.30;27.00;;;;;;5111726;28;19916;-69
2021/09/02 11:14:24;;;;;;;;;;;28.80;27.70;;;;;;5113591;28;19928;-64
2021/09/02 11:16:50;;;;;;;;;;;28.50;28.60;;;;;;5112751;28;20018;-64
2021/09/02 11:19:28;;;;;;;;;;;28.10;29.80;;;;;;5111742;28;20410;-64
2021/09/02 11:21:54;;;;;;;;;;;28.00;30.30;;;;;;5111839;28;19908;-64
2021/09/02 11:24:19;;;;;;;;;;;27.70;32.70;;;;;;5110824;28;20229;-64
2021/09/02 11:26:49;;;;;;;;;;;27.90;34.00;;;;;;5111893;28;19911;-63
2021/09/02 11:29:22;;;;;;;;;;;27.50;34.90;;;;;;5110065;28;19911;-64
2021/09/02 11:32:05;;;;;;;;;;;27.70;36.30;;;;;;5110710;28;19915;-64
2021/09/02 11:34:30;;;;;;;;;;;27.30;36.70;;;;;;5112093;28;19908;-63
2021/09/02 11:36:56;;;;;;;;;;;27.10;37.90;;;;;;5092746;28;19919;-63
2021/09/02 11:39:34;;;;;;;;;;;27.10;39.30;;;;;;5110277;28;19907;-63
2021/09/02 11:42:04;;;;;;;;;;;26.90;39.30;;;;;;5112807;28;19908;-64
2021/09/02 11:44:35;;;;;;;;;;;26.40;41.10;;;;;;5112290;28;20225;-64
2021/09/02 11:47:10;;;;;;;;;;;26.60;43.40;;;;;;5111890;28;20324;-63
2021/09/02 11:49:36;;;;;;;;;;;26.30;44.20;;;;;;5111394;28;19931;-62
2021/09/02 11:52:04;;;;;;;;;;;26.20;45.80;;;;;;5090943;28;19963;-64
2021/09/02 11:54:31;;;;;;;;;;;25.70;47.20;;;;;;5094951;28;19908;-63
2021/09/02 11:56:56;;;;;;;;;;;25.80;49.60;;;;;;5112199;28;19970;-63
2021/09/02 11:59:22;;;;;;;;;;;26.10;52.90;;;;;;5112048;28;20356;-63
2021/09/02 12:01:49;;;;;;;;;;;25.80;51.50;;;;;;5111753;28;19998;-64
2021/09/02 12:04:16;;;;;;;;;;;25.70;53.00;;;;;;5111853;28;19911;-64
2021/09/02 12:06:42;;;;;;;;;;;25.50;53.50;;;;;;5094296;28;19923;-64
2021/09/02 12:09:07;;;;;;;;;;;25.20;54.90;;;;;;5110699;28;19916;-63
2021/09/02 12:11:33;;;;;;;;;;;24.90;56.80;;;;;;5113194;28;19916;-64
2021/09/02 12:14:12;;;;;;;;;;;25.10;58.60;;;;;;5110429;28;19918;-62
2021/09/02 12:16:38;;;;;;;;;;;25.30;60.10;;;;;;5111504;28;20294;-63
2021/09/02 12:19:04;;;;;;;;;;;25.60;63.00;;;;;;5110664;28;19912;-63
2021/09/02 12:21:34;;;;;;;;;;;25.50;63.50;;;;;;5110747;28;19954;-64
2021/09/02 12:24:11;;;;;;;;;;;25.40;63.40;;;;;;5106930;28;20663;-63
2021/09/02 12:26:42;;;;;;;;;;;24.80;63.00;;;;;;5110037;28;20007;-61
2021/09/02 12:29:12;;;;;;;;;;;24.60;64.70;;;;;;5107748;28;19920;-64
2021/09/02 12:31:37;;;;;;;;;;;24.20;66.00;;;;;;5109438;28;19922;-63
2021/09/02 12:34:09;;;;;;;;;;;23.80;66.90;;;;;;5107772;28;19908;-61
2021/09/02 12:36:41;;;;;;;;;;;24.10;72.20;;;;;;5109694;28;20439;-63
2021/09/02 12:39:10;;;;;;;;;;;24.20;73.40;;;;;;5108164;28;19914;-62
2021/09/02 12:41:39;;;;;;;;;;;24.00;76.50;;;;;;5111549;28;19908;-63
2021/09/02 12:44:12;;;;;;;;;;;24.10;77.40;;;;;;5109728;28;19915;-64
2021/09/02 12:46:47;;;;;;;;;;;24.50;79.20;;;;;;5111815;28;20349;-62
2021/09/02 12:49:12;;;;;;;;;;;24.20;77.80;;;;;;5111787;28;20410;-62
2021/09/02 12:51:38;;;;;;;;;;;24.00;79.10;;;;;;5076119;28;19912;-62
2021/09/02 12:54:03;;;;;;;;;;;23.80;81.80;;;;;;5090715;28;19977;-64
2021/09/02 12:56:38;;;;;;;;;;;23.70;85.40;;;;;;5091683;28;19908;-63
2021/09/02 12:59:04;;;;;;;;;;;23.90;89.60;;;;;;5091785;28;19927;-63
2021/09/02 13:01:30;;;;;;;;;;;23.70;97.70;;;;;;5092596;28;19912;-63
2021/09/02 13:04:02;;;;;;;;;;;23.40;87.00;;;;;;5090232;28;19966;-63
2021/09/02 13:06:29;;;;;;;;;;;23.20;87.50;;;;;;5058541;22;20343;-67
2021/09/02 13:08:54;;;;;;;;;;;22.90;89.80;;;;;;5027245;28;19910;-66
2021/09/02 13:11:20;;;;;;;;;;;22.60;91.40;;;;;;5013414;28;20377;-67
2021/09/02 13:13:45;;;;;;;;;;;22.60;92.50;;;;;;5008246;28;19995;-66
2021/09/02 13:16:11;;;;;;;;;;;22.60;93.50;;;;;;5008635;28;19910;-66
2021/09/02 13:18:36;;;;;;;;;;;22.60;94.60;;;;;;5008907;28;19910;-66
2021/09/02 13:21:02;;;;;;;;;;;22.60;95.80;;;;;;5008937;28;19910;-66
2021/09/02 13:23:27;;;;;;;;;;;22.70;97.30;;;;;;5008591;28;20254;-66
2021/09/02 13:25:53;;;;;;;;;;;22.70;98.80;;;;;;5028062;28;19956;-66
2021/09/02 13:28:18;;;;;;;;;;;22.60;99.00;;;;;;5027704;28;19913;-66
2021/09/02 13:30:44;;;;;;;;;;;22.60;99.50;;;;;;5028051;28;19909;-67
2021/09/02 13:33:10;;;;;;;;;;;22.60;99.90;;;;;;5027458;28;19956;-66
2021/09/02 13:35:35;;;;;;;;;;;22.60;99.90;;;;;;5028514;28;19913;-67
2021/09/02 13:38:00;;;;;;;;;;;22.70;99.90;;;;;;5029979;28;19932;-67
2021/09/02 13:40:26;;;;;;;;;;;22.70;99.90;;;;;;5031365;28;19913;-67
2021/09/02 13:42:52;;;;;;;;;;;22.70;99.90;;;;;;5031156;28;19992;-65
2021/09/02 13:45:18;;;;;;;;;;;22.70;99.90;;;;;;5031714;28;19917;-66
2021/09/02 13:47:44;;;;;;;;;;;22.70;99.90;;;;;;5031764;28;20456;-65
2021/09/02 13:50:10;;;;;;;;;;;22.70;99.90;;;;;;5031752;28;19920;-67
2021/09/02 13:52:36;;;;;;;;;;;22.60;99.90;;;;;;5029850;28;20038;-67
2021/09/02 13:55:03;;;;;;;;;;;22.70;99.90;;;;;;5029970;28;19913;-66
2021/09/02 13:57:28;;;;;;;;;;;22.80;99.90;;;;;;5021355;28;19909;-66
2021/09/02 13:59:54;;;;;;;;;;;22.80;99.90;;;;;;5021793;28;19959;-66
2021/09/02 14:02:19;;;;;;;;;;;22.70;99.90;;;;;;5029451;28;20031;-66
2021/09/02 14:04:45;;;;;;;;;;;22.60;99.90;;;;;;5021845;28;19983;-65
2021/09/02 14:07:10;;;;;;;;;;;22.60;99.90;;;;;;5020655;28;19924;-66
2021/09/02 14:09:36;;;;;;;;;;;22.60;99.90;;;;;;5030199;28;19917;-66
2021/09/02 14:12:01;;;;;;;;;;;22.60;99.90;;;;;;5030272;28;19913;-66
2021/09/02 14:14:27;;;;;;;;;;;22.70;99.90;;;;;;5030654;28;19928;-66
2021/09/02 14:16:52;;;;;;;;;;;22.60;99.90;;;;;;5032346;28;20003;-67
2021/09/02 14:19:18;;;;;;;;;;;22.60;99.90;;;;;;5045532;28;19934;-66
2021/09/02 14:21:43;;;;;;;;;;;22.60;99.90;;;;;;5050194;28;19920;-66